AirNav   Everest Fuels
 
 978 users online  

3LL6 Bickel Airport
New Athens, Illinois, USA

GOING TO NEW ATHENS?


FAA INFORMATION EFFECTIVE 25 MARCH 2021

Location

FAA Identifier: 3LL6
Lat/Long: 38-20-06.0000N 089-46-11.0000W
38-20.100000N 089-46.183333W
38.3350000,-89.7697222
(estimated)
Elevation: 530 ft. / 162 m (estimated)
From city: 5 miles SE of NEW ATHENS, IL
Time zone: UTC -5 (UTC -6 during Standard Time)
Zip code: 62255

Airport Operations

Airport use: Private use. Permission required prior to landing
Activation date: 10/2007
Control tower: no
ARTCC: KANSAS CITY CENTER
FSS: SAINT LOUIS FLIGHT SERVICE STATION
Attendance: UNATNDD
Segmented circle: no

Airport Communications

WX AWOS-3 at SAR (12 nm S): 118.375 (618-443-3296)

Nearby radio navigation aids

VOR radial/distance  VOR name  Freq  Var
TOYr160/25.2TROY VORTAC116.0004E
ENLr256/29.2CENTRALIA VORTAC115.0004E

 
NDB name  Hdg/Dist  Freq  Var  ID
GOOEY192/8.738502WJD .--- -..
CIVIC MEMORIAL159/36.026301WCVM -.-. ...- --

Airport Services

Runway Information

Runway 18/36

Dimensions: 2215 x 100 ft. / 675 x 30 m
Surface: turf
RUNWAY 18  RUNWAY 36
Traffic pattern: leftleft
Obstructions: 30 ft. pline, 600 ft. from runway100 ft. pline, 2200 ft. from runway

Airport Ownership and Management from official FAA records

Ownership: Privately-owned
Owner: PAUL BICKEL
2960 ECKERT RD
LENZBURG, IL 62255
Phone 618-475-3155
Manager: PAUL BICKEL
2960 ECKERT RD
LENZBURG, IL 62255
Phone 618-660-9765

Airport Operational Statistics

Aircraft based on the field: 1
Single engine airplanes: 1
    

Additional Remarks

FOR CD CTC ST LOUIS APCH AT 314-890-1018.

Instrument Procedures

There are no published instrument procedures at 3LL6.

Some nearby airports with instrument procedures:

KSAR - Sparta Community Airport-Hunter Field (12 nm S)
KBLV - Scott Air Force Base/MidAmerica Airport (13 nm N)
KCPS - St Louis Downtown Airport (23 nm NW)
KPCD - Perryville Regional Airport (28 nm S)
KPJY - Pinckneyville-Du Quoin Airport (29 nm SE)
 
Loc | Ops | Rwys | IFR | FBO | Links
Com | Nav | Svcs | Stats | Notes
Aerial photo
No photo
 
Sectional chart

 
Airport distance calculator
Flying to Bickel Airport? Find the distance to fly.

From to 3LL6

Sunrise and sunset
Times for 11-Apr-2021
 Local
(UTC-5)
 Zulu
(UTC)
Morning civil twilight06:0311:03
Sunrise06:3011:30
Sunset19:3000:30
Evening civil twilight19:5700:57

Current date and time
Zulu (UTC)  12-Apr-2021 00:31:34
Local (UTC-5)  11-Apr-2021 19:31:34
 
METAR
KSAR 
12nm S 
120021Z AUTO 29003KT 10SM CLR 18/04 A2960 RMK AO2
KBLV 
12nm N 
112356Z AUTO 31009KT 10SM CLR 18/06 A2957 RMK AO2 SLP016 T01780060 10209 20178 52016 PNO $
KCPS 
23nm NW 
112353Z 29010KT 10SM CLR 19/02 A2958 RMK AO2 SLP014 T01940017 10211 20178 53014 $
TAF
KBLV 
12nm N 
111730Z 1117/1222 28015G25KT 9999 SKC QNH2952INS TEMPO 1118/1122 29025G35KT 510003 BECMG 1123/1124 29009KT 9999 SKC QNH2956INS TX19/1120Z TN05/1211Z
NOTAMs
Click for the latest NOTAMs
NOTAMs are issued by the DoD/FAA and will open in a separate window not controlled by AirNav.

 

 
 

Would you like to see your business listed on this page?

 If your business provides an interesting product or service to pilots, flight crews, aircraft, or users of the Bickel Airport, you should consider listing it here.  To start the listing process, click on the button below
 
Add a business
 

Other Pages about Bickel Airport

Update a link
 
Copyright © AirNav, LLC. All rights reserved. Privacy Policy  Contact